PHDIS EHRD-EHLE
Flight info
| Callsign | PHDIS |
|---|---|
| Flight time | 0h 34m |
| Altitude | 1000 |
| Route | ZZZ NL0093 BREUKELEN DCT EHLE |
| Aircraft | H160/M-AFGAERA/L |
Departure
| Time | 2026-05-04 13:10 |
|---|---|
| Airport | Rotterdam The Hague Airport (EHRD) |
Arrival
| Time | 2026-05-04 13:44 |
|---|---|
| Airport | Lelystad Airport (EHLE) |
| Time | Latitude | Longitude | Altitude | Speed | Heading |
|---|---|---|---|---|---|
| 2026-05-04 12:58 | 51.95433 | 4.44186 | -10 ft | 0 kts | 326° |
| 2026-05-04 13:05 | 51.95440 | 4.44172 | -9 ft | 4 kts | 270° |
| 2026-05-04 13:05 | 51.95439 | 4.44146 | -9 ft | 1 kts | 304° |
| 2026-05-04 13:06 | 51.95440 | 4.44145 | -9 ft | 1 kts | 307° |
| 2026-05-04 13:06 | 51.95435 | 4.44099 | -9 ft | 4 kts | 249° |
| 2026-05-04 13:06 | 51.95447 | 4.44072 | -9 ft | 2 kts | 328° |
| 2026-05-04 13:06 | 51.95473 | 4.44043 | -9 ft | 1 kts | 327° |
| 2026-05-04 13:07 | 51.95474 | 4.44043 | -9 ft | 0 kts | 348° |
| 2026-05-04 13:07 | 51.95496 | 4.44047 | -9 ft | 8 kts | 40° |
| 2026-05-04 13:07 | 51.95545 | 4.44165 | -9 ft | 17 kts | 59° |
| 2026-05-04 13:07 | 51.95632 | 4.44373 | -9 ft | 29 kts | 54° |
| 2026-05-04 13:08 | 51.95738 | 4.44637 | -9 ft | 19 kts | 57° |
| 2026-05-04 13:08 | 51.95807 | 4.44772 | -9 ft | 13 kts | 5° |
| 2026-05-04 13:08 | 51.95864 | 4.44728 | -9 ft | 5 kts | 323° |
| 2026-05-04 13:08 | 51.95870 | 4.44720 | -9 ft | 0 kts | 316° |
| 2026-05-04 13:09 | 51.95919 | 4.44638 | 8 ft | 15 kts | 265° |
| 2026-05-04 13:09 | 51.95923 | 4.44634 | -9 ft | 0 kts | 242° |
| 2026-05-04 13:09 | 51.95921 | 4.44626 | 48 ft | 1 kts | 242° |
| 2026-05-04 13:10 | 51.95857 | 4.44425 | 219 ft | 57 kts | 239° |
| 2026-05-04 13:10 | 51.95581 | 4.43799 | 491 ft | 73 kts | 234° |
| 2026-05-04 13:10 | 51.95635 | 4.42994 | 692 ft | 85 kts | 314° |
| 2026-05-04 13:10 | 51.96231 | 4.42942 | 846 ft | 98 kts | 28° |
| 2026-05-04 13:11 | 51.96683 | 4.43790 | 1024 ft | 99 kts | 49° |
| 2026-05-04 13:11 | 51.97096 | 4.44648 | 1018 ft | 95 kts | 49° |
| 2026-05-04 13:11 | 51.97492 | 4.45490 | 1016 ft | 92 kts | 50° |
| 2026-05-04 13:11 | 51.97867 | 4.46323 | 1016 ft | 90 kts | 51° |
| 2026-05-04 13:12 | 51.98225 | 4.47119 | 1010 ft | 87 kts | 48° |
| 2026-05-04 13:12 | 51.98632 | 4.47852 | 1009 ft | 86 kts | 43° |
| 2026-05-04 13:12 | 51.99027 | 4.48592 | 999 ft | 93 kts | 47° |
| 2026-05-04 13:12 | 51.99508 | 4.49531 | 991 ft | 122 kts | 46° |
| 2026-05-04 13:13 | 52.00095 | 4.50625 | 991 ft | 140 kts | 46° |
| 2026-05-04 13:13 | 52.00762 | 4.51853 | 1007 ft | 148 kts | 46° |
| 2026-05-04 13:13 | 52.01346 | 4.52930 | 1010 ft | 147 kts | 47° |
| 2026-05-04 13:13 | 52.02026 | 4.54172 | 1011 ft | 148 kts | 47° |
| 2026-05-04 13:14 | 52.02716 | 4.55430 | 1009 ft | 148 kts | 47° |
| 2026-05-04 13:14 | 52.03392 | 4.56673 | 1007 ft | 149 kts | 47° |
| 2026-05-04 13:14 | 52.04076 | 4.57934 | 1007 ft | 148 kts | 47° |
| 2026-05-04 13:14 | 52.04751 | 4.59198 | 1006 ft | 149 kts | 47° |
| 2026-05-04 13:15 | 52.05376 | 4.60368 | 1012 ft | 149 kts | 47° |
| 2026-05-04 13:15 | 52.05509 | 4.60614 | 1006 ft | 149 kts | 47° |
| 2026-05-04 13:15 | 52.06084 | 4.61672 | 1006 ft | 148 kts | 47° |
| 2026-05-04 13:15 | 52.06759 | 4.62909 | 1002 ft | 149 kts | 47° |
| 2026-05-04 13:16 | 52.07401 | 4.64070 | 1005 ft | 149 kts | 47° |
| 2026-05-04 13:16 | 52.08088 | 4.65325 | 1007 ft | 149 kts | 47° |
| 2026-05-04 13:16 | 52.08768 | 4.66575 | 1004 ft | 150 kts | 47° |
| 2026-05-04 13:16 | 52.09466 | 4.67854 | 999 ft | 150 kts | 47° |
| 2026-05-04 13:17 | 52.10152 | 4.69119 | 1001 ft | 149 kts | 47° |
| 2026-05-04 13:17 | 52.10834 | 4.70370 | 1003 ft | 149 kts | 47° |
| 2026-05-04 13:17 | 52.11531 | 4.71632 | 1004 ft | 148 kts | 47° |
| 2026-05-04 13:17 | 52.12213 | 4.72865 | 1003 ft | 148 kts | 47° |
| 2026-05-04 13:18 | 52.12781 | 4.73888 | 1004 ft | 149 kts | 47° |
| 2026-05-04 13:18 | 52.13483 | 4.75150 | 1004 ft | 148 kts | 47° |
| 2026-05-04 13:18 | 52.14163 | 4.76381 | 1002 ft | 148 kts | 47° |
| 2026-05-04 13:18 | 52.14850 | 4.77636 | 1008 ft | 148 kts | 47° |
| 2026-05-04 13:19 | 52.15530 | 4.78915 | 1003 ft | 149 kts | 52° |
| 2026-05-04 13:19 | 52.15980 | 4.80429 | 1001 ft | 151 kts | 68° |
| 2026-05-04 13:19 | 52.16320 | 4.82052 | 1011 ft | 151 kts | 71° |
| 2026-05-04 13:19 | 52.16648 | 4.83684 | 1012 ft | 151 kts | 71° |
| 2026-05-04 13:20 | 52.16972 | 4.85304 | 1006 ft | 151 kts | 71° |
| 2026-05-04 13:20 | 52.17202 | 4.86962 | 1005 ft | 151 kts | 79° |
| 2026-05-04 13:20 | 52.17359 | 4.88653 | 1003 ft | 151 kts | 81° |
| 2026-05-04 13:20 | 52.17502 | 4.90343 | 1005 ft | 151 kts | 82° |
| 2026-05-04 13:21 | 52.17499 | 4.92073 | 1003 ft | 153 kts | 93° |
| 2026-05-04 13:21 | 52.17180 | 4.93732 | 1002 ft | 156 kts | 121° |
| 2026-05-04 13:21 | 52.16455 | 4.95028 | 1000 ft | 156 kts | 142° |
| 2026-05-04 13:21 | 52.15692 | 4.96221 | 1004 ft | 155 kts | 123° |
| 2026-05-04 13:22 | 52.15386 | 4.97887 | 1001 ft | 153 kts | 91° |
| 2026-05-04 13:22 | 52.15499 | 4.99009 | 1006 ft | 151 kts | 70° |
| 2026-05-04 13:22 | 52.15521 | 4.99105 | 1000 ft | 151 kts | 69° |
| 2026-05-04 13:22 | 52.16014 | 5.00277 | 967 ft | 146 kts | 43° |
| 2026-05-04 13:23 | 52.16278 | 5.00622 | 834 ft | 140 kts | 31° |
| 2026-05-04 13:23 | 52.17034 | 5.00890 | 742 ft | 98 kts | 347° |
| 2026-05-04 13:23 | 52.17417 | 5.00626 | 536 ft | 78 kts | 345° |
| 2026-05-04 13:23 | 52.17733 | 5.00665 | 385 ft | 74 kts | 12° |
| 2026-05-04 13:24 | 52.18022 | 5.00801 | 634 ft | 20 kts | 21° |
| 2026-05-04 13:24 | 52.17990 | 5.00826 | 357 ft | 4 kts | 268° |
| 2026-05-04 13:24 | 52.18001 | 5.00786 | 174 ft | 10 kts | 187° |
| 2026-05-04 13:25 | 52.18019 | 5.00733 | 208 ft | 4 kts | 204° |
| 2026-05-04 13:25 | 52.17985 | 5.00803 | 157 ft | 15 kts | 202° |
| 2026-05-04 13:25 | 52.17856 | 5.00815 | 140 ft | 40 kts | 204° |
| 2026-05-04 13:25 | 52.17666 | 5.00765 | 212 ft | 39 kts | 158° |
| 2026-05-04 13:26 | 52.17565 | 5.00876 | 24 ft | 11 kts | 141° |
| 2026-05-04 13:26 | 52.17561 | 5.00893 | 80 ft | 4 kts | 79° |
| 2026-05-04 13:26 | 52.17549 | 5.00946 | 72 ft | 9 kts | 80° |
| 2026-05-04 13:26 | 52.17544 | 5.00976 | 47 ft | 7 kts | 72° |
| 2026-05-04 13:27 | 52.17546 | 5.01029 | 7 ft | 3 kts | 82° |
| 2026-05-04 13:27 | 52.17548 | 5.01033 | 6 ft | 0 kts | 28° |
| 2026-05-04 13:28 | 52.17554 | 5.01150 | 37 ft | 6 kts | 2° |
| 2026-05-04 13:28 | 52.17557 | 5.01142 | 10 ft | 1 kts | 355° |
| 2026-05-04 13:29 | 52.17558 | 5.01141 | 16 ft | 2 kts | 357° |
| 2026-05-04 13:29 | 52.17563 | 5.01077 | 16 ft | 3 kts | 352° |
| 2026-05-04 13:29 | 52.17563 | 5.01080 | 12 ft | 1 kts | 353° |
| 2026-05-04 13:29 | 52.17564 | 5.01080 | 12 ft | 1 kts | 355° |
| 2026-05-04 13:30 | 52.17567 | 5.01079 | 6 ft | 0 kts | 357° |
| 2026-05-04 13:30 | 52.17566 | 5.01078 | 17 ft | 1 kts | 359° |
| 2026-05-04 13:31 | 52.17532 | 5.01068 | 176 ft | 8 kts | 357° |
| 2026-05-04 13:31 | 52.17532 | 5.01078 | 422 ft | 26 kts | 5° |
| 2026-05-04 13:31 | 52.17851 | 5.01098 | 528 ft | 62 kts | 3° |
| 2026-05-04 13:31 | 52.18325 | 5.01248 | 531 ft | 82 kts | 14° |
| 2026-05-04 13:32 | 52.18804 | 5.01873 | 479 ft | 98 kts | 46° |
| 2026-05-04 13:32 | 52.19270 | 5.02776 | 663 ft | 113 kts | 46° |
| 2026-05-04 13:32 | 52.19791 | 5.03785 | 864 ft | 119 kts | 47° |
| 2026-05-04 13:32 | 52.20146 | 5.04484 | 926 ft | 120 kts | 48° |
| 2026-05-04 13:33 | 52.20891 | 5.05924 | 958 ft | 137 kts | 48° |
| 2026-05-04 13:33 | 52.21282 | 5.06660 | 951 ft | 145 kts | 48° |
| 2026-05-04 13:33 | 52.21775 | 5.07588 | 1000 ft | 147 kts | 48° |
| 2026-05-04 13:33 | 52.21935 | 5.07886 | 1018 ft | 146 kts | 48° |
| 2026-05-04 13:34 | 52.22544 | 5.09030 | 1017 ft | 147 kts | 49° |
| 2026-05-04 13:34 | 52.23212 | 5.10295 | 1012 ft | 147 kts | 49° |
| 2026-05-04 13:34 | 52.23854 | 5.11512 | 1005 ft | 148 kts | 48° |
| 2026-05-04 13:34 | 52.24520 | 5.12755 | 1000 ft | 148 kts | 47° |
| 2026-05-04 13:35 | 52.24832 | 5.13326 | 1001 ft | 148 kts | 47° |
| 2026-05-04 13:35 | 52.26089 | 5.15624 | 1003 ft | 149 kts | 48° |
| 2026-05-04 13:35 | 52.26792 | 5.16915 | 1000 ft | 149 kts | 48° |
| 2026-05-04 13:36 | 52.27482 | 5.18188 | 999 ft | 149 kts | 48° |
| 2026-05-04 13:36 | 52.28171 | 5.19453 | 999 ft | 149 kts | 47° |
| 2026-05-04 13:36 | 52.28845 | 5.20697 | 998 ft | 148 kts | 47° |
| 2026-05-04 13:36 | 52.29453 | 5.21813 | 999 ft | 148 kts | 48° |
| 2026-05-04 13:37 | 52.30091 | 5.22990 | 1003 ft | 148 kts | 48° |
| 2026-05-04 13:37 | 52.30789 | 5.24276 | 1004 ft | 148 kts | 48° |
| 2026-05-04 13:37 | 52.31440 | 5.25477 | 1000 ft | 148 kts | 48° |
| 2026-05-04 13:37 | 52.31899 | 5.26315 | 1004 ft | 149 kts | 46° |
| 2026-05-04 13:38 | 52.32579 | 5.27307 | 1002 ft | 148 kts | 37° |
| 2026-05-04 13:38 | 52.33347 | 5.28114 | 1006 ft | 148 kts | 28° |
| 2026-05-04 13:38 | 52.34253 | 5.28759 | 1006 ft | 146 kts | 19° |
| 2026-05-04 13:38 | 52.35238 | 5.29215 | 1000 ft | 146 kts | 13° |
| 2026-05-04 13:39 | 52.36231 | 5.29476 | 1003 ft | 146 kts | 6° |
| 2026-05-04 13:39 | 52.37237 | 5.29721 | 1001 ft | 147 kts | 18° |
| 2026-05-04 13:39 | 52.38104 | 5.30610 | 1013 ft | 149 kts | 44° |
| 2026-05-04 13:39 | 52.38697 | 5.31979 | 1011 ft | 149 kts | 58° |
| 2026-05-04 13:40 | 52.39221 | 5.33449 | 1009 ft | 149 kts | 60° |
| 2026-05-04 13:40 | 52.39724 | 5.34939 | 1009 ft | 149 kts | 62° |
| 2026-05-04 13:40 | 52.40205 | 5.36447 | 1015 ft | 149 kts | 62° |
| 2026-05-04 13:40 | 52.40758 | 5.37863 | 1012 ft | 149 kts | 53° |
| 2026-05-04 13:41 | 52.41437 | 5.39139 | 1007 ft | 148 kts | 45° |
| 2026-05-04 13:41 | 52.42139 | 5.40325 | 1009 ft | 148 kts | 48° |
| 2026-05-04 13:41 | 52.42770 | 5.41614 | 1009 ft | 148 kts | 53° |
| 2026-05-04 13:42 | 52.43518 | 5.43494 | 1011 ft | 148 kts | 57° |
| 2026-05-04 13:42 | 52.44104 | 5.44789 | 1010 ft | 148 kts | 50° |
| 2026-05-04 13:42 | 52.44712 | 5.45870 | 1006 ft | 148 kts | 44° |
| 2026-05-04 13:42 | 52.45429 | 5.46907 | 1013 ft | 148 kts | 40° |
| 2026-05-04 13:43 | 52.46213 | 5.47963 | 1012 ft | 147 kts | 39° |
| 2026-05-04 13:43 | 52.46994 | 5.49015 | 1005 ft | 148 kts | 42° |
| 2026-05-04 13:43 | 52.47690 | 5.50251 | 1011 ft | 148 kts | 51° |
| 2026-05-04 13:43 | 52.47964 | 5.51698 | 1006 ft | 152 kts | 92° |
| 2026-05-04 13:44 | 52.47487 | 5.53194 | 1007 ft | 153 kts | 140° |
| 2026-05-04 13:44 | 52.46510 | 5.53609 | 947 ft | 146 kts | 200° |
| 2026-05-04 13:44 | 52.45971 | 5.52653 | 206 ft | 106 kts | 250° |
| 2026-05-04 13:44 | 52.45573 | 5.51944 | 192 ft | 37 kts | 245° |
| 2026-05-04 13:45 | 52.45499 | 5.51816 | 17 ft | 4 kts | 199° |
| 2026-05-04 13:45 | 52.45478 | 5.51820 | 17 ft | 3 kts | 154° |
| 2026-05-04 13:45 | 52.45468 | 5.51827 | -8 ft | 0 kts | 145° |
| 2026-05-04 13:45 | 52.45469 | 5.51827 | -8 ft | 0 kts | 141° |
| 2026-05-04 13:46 | 52.45445 | 5.51866 | 7 ft | 9 kts | 143° |
| 2026-05-04 13:46 | 52.45419 | 5.51903 | 27 ft | 8 kts | 144° |
| 2026-05-04 13:46 | 52.45396 | 5.51935 | -8 ft | 0 kts | 149° |
| 2026-05-04 13:46 | 52.45377 | 5.51938 | -8 ft | 4 kts | 202° |
| 2026-05-04 13:47 | 52.45363 | 5.51920 | -8 ft | 5 kts | 219° |
| 2026-05-04 13:47 | 52.45342 | 5.51883 | -8 ft | 5 kts | 227° |
| 2026-05-04 13:47 | 52.45317 | 5.51839 | -8 ft | 6 kts | 225° |
| 2026-05-04 13:47 | 52.45289 | 5.51791 | -8 ft | 7 kts | 229° |
| 2026-05-04 13:48 | 52.45262 | 5.51739 | -8 ft | 7 kts | 231° |
| 2026-05-04 13:48 | 52.45259 | 5.51734 | -8 ft | 6 kts | 227° |
| 2026-05-04 13:48 | 52.45249 | 5.51715 | -8 ft | 4 kts | 232° |
| 2026-05-04 13:48 | 52.45200 | 5.51625 | -8 ft | 15 kts | 199° |
| 2026-05-04 13:49 | 52.45130 | 5.51707 | -8 ft | 11 kts | 135° |
| 2026-05-04 13:49 | 52.45094 | 5.51745 | -8 ft | 0 kts | 241° |
| 2026-05-04 13:49 | 52.45094 | 5.51746 | -8 ft | 0 kts | 225° |
| 2026-05-04 13:50 | 52.45103 | 5.51761 | -8 ft | 3 kts | 225° |
| 2026-05-04 13:51 | 52.45116 | 5.51782 | -8 ft | 3 kts | 225° |
| 2026-05-04 13:51 | 52.45119 | 5.51788 | -8 ft | 0 kts | 225° |